createdAt,value
2022-10-14T00:01:00.464Z,17.17
2022-10-14T00:05:58.647Z,17.24
2022-10-14T00:10:55.258Z,17.17
2022-10-14T00:15:51.747Z,16.79
2022-10-14T00:20:53.535Z,16.79
2022-10-14T00:25:51.169Z,16.78
2022-10-14T00:30:55.373Z,16.59
2022-10-14T00:35:55.672Z,16.27
2022-10-14T00:40:55.427Z,15.75
2022-10-14T00:45:52.370Z,15.35
2022-10-14T00:50:50.620Z,14.99
2022-10-14T00:55:47.984Z,14.94
2022-10-14T01:00:45.306Z,15.05
2022-10-14T01:05:48.363Z,15.31
2022-10-14T01:10:50.686Z,15.31
2022-10-14T01:15:51.689Z,15.40
2022-10-14T01:20:53.865Z,15.43
2022-10-14T01:25:59.750Z,15.33
2022-10-14T01:30:58.506Z,15.54
2022-10-14T01:36:01.488Z,15.48
2022-10-14T01:40:59.986Z,15.39
2022-10-14T01:45:58.649Z,15.52
2022-10-14T01:50:57.097Z,15.49
2022-10-14T01:55:55.274Z,15.56
2022-10-14T02:00:51.981Z,15.76
2022-10-14T02:05:52.662Z,15.59
2022-10-14T02:11:01.762Z,15.78
2022-10-14T02:16:04.841Z,15.76
2022-10-14T02:21:07.790Z,15.74
2022-10-14T02:26:05.848Z,15.59
2022-10-14T02:31:05.563Z,15.76
2022-10-14T02:36:05.268Z,15.87
2022-10-14T02:41:09.684Z,15.56
2022-10-14T02:46:06.390Z,15.39
2022-10-14T02:51:04.542Z,15.22
2022-10-14T02:56:01.176Z,15.26
2022-10-14T03:00:57.781Z,15.45
2022-10-14T03:05:55.514Z,15.33
2022-10-14T03:10:53.012Z,15.40
2022-10-14T03:15:50.772Z,15.43
2022-10-14T03:20:48.894Z,15.25
2022-10-14T03:25:50.895Z,15.22
2022-10-14T03:30:54.066Z,15.15
2022-10-14T03:36:26.236Z,15.04
2022-10-14T03:41:26.124Z,14.83
2022-10-14T03:46:23.598Z,14.91
2022-10-14T03:51:21.580Z,15.15
2022-10-14T03:56:18.253Z,15.06
2022-10-14T04:01:16.304Z,15.19
2022-10-14T04:06:32.401Z,15.27
2022-10-14T04:11:31.926Z,15.34
2022-10-14T04:16:34.139Z,15.25
2022-10-14T04:21:40.643Z,15.52
2022-10-14T04:26:40.136Z,15.73
2022-10-14T04:31:43.324Z,15.70
2022-10-14T04:36:41.596Z,15.77
2022-10-14T04:41:52.366Z,15.91
2022-10-14T04:46:53.185Z,15.94
2022-10-14T04:51:53.453Z,15.85
2022-10-14T04:56:57.874Z,15.86
2022-10-14T05:01:54.528Z,15.52
2022-10-14T05:06:51.628Z,15.49
2022-10-14T05:11:53.913Z,15.21
2022-10-14T05:16:55.065Z,15.14
2022-10-14T05:21:57.560Z,14.84
2022-10-14T05:27:04.107Z,14.68
2022-10-14T05:32:02.197Z,14.36
2022-10-14T05:37:22.451Z,14.05
2022-10-14T05:42:23.198Z,14.01
2022-10-14T05:47:23.269Z,14.46
2022-10-14T05:52:25.351Z,14.13
2022-10-14T05:57:24.262Z,13.99
2022-10-14T06:02:23.919Z,13.73
2022-10-14T06:07:25.989Z,13.53
2022-10-14T06:12:23.421Z,13.59
2022-10-14T06:17:22.840Z,13.55
2022-10-14T06:22:20.024Z,13.77
2022-10-14T06:27:17.400Z,13.73
2022-10-14T06:32:15.445Z,14.09
2022-10-14T06:37:12.927Z,14.04
2022-10-14T06:42:20.791Z,14.04
2022-10-14T06:47:19.095Z,14.02
2022-10-14T06:52:16.733Z,14.30
2022-10-14T06:57:13.743Z,14.05
2022-10-14T07:02:10.990Z,14.22
2022-10-14T07:07:07.903Z,14.08
2022-10-14T07:12:05.892Z,14.26
2022-10-14T07:17:07.279Z,14.38
2022-10-14T07:22:04.643Z,14.64
2022-10-14T07:32:04.605Z,14.76
2022-10-14T07:37:01.261Z,14.87
2022-10-14T07:41:57.943Z,14.61
2022-10-14T07:47:05.214Z,14.52
2022-10-14T07:52:56.683Z,14.98
2022-10-14T07:58:49.030Z,15.26
2022-10-14T08:04:03.573Z,15.52
2022-10-14T08:15:40.027Z,15.27
2022-10-14T08:20:37.134Z,15.61
2022-10-14T08:25:38.452Z,15.88
2022-10-14T08:30:35.643Z,16.10
2022-10-14T08:35:37.681Z,15.89
2022-10-14T08:40:49.093Z,15.74
2022-10-14T08:45:51.578Z,16.13
2022-10-14T08:50:51.219Z,16.17
2022-10-14T08:55:50.502Z,16.35
2022-10-14T09:00:49.667Z,16.44
2022-10-14T09:11:44.389Z,16.36
2022-10-14T09:16:41.944Z,16.62
2022-10-14T09:21:54.725Z,16.64
2022-10-14T09:26:53.946Z,16.67
2022-10-14T09:31:51.357Z,16.72
2022-10-14T09:36:49.345Z,16.94
2022-10-14T09:42:03.742Z,16.92
2022-10-14T09:47:36.843Z,17.09
2022-10-14T09:52:33.916Z,17.40
2022-10-14T09:57:38.045Z,17.52
2022-10-14T10:02:40.053Z,17.53
2022-10-14T10:07:41.857Z,17.81
2022-10-14T10:12:45.829Z,18.04
2022-10-14T10:17:44.189Z,18.22
2022-10-14T10:22:41.308Z,18.30
2022-10-14T10:27:39.890Z,18.11
2022-10-14T10:32:54.378Z,18.13
2022-10-14T10:37:57.442Z,18.16
2022-10-14T10:43:21.238Z,18.08
2022-10-14T10:48:25.472Z,18.29
2022-10-14T10:53:39.986Z,18.38
2022-10-14T10:58:51.691Z,18.47
2022-10-14T11:04:02.439Z,18.99
2022-10-14T11:09:24.817Z,19.09
2022-10-14T11:14:33.521Z,18.79
2022-10-14T11:19:37.675Z,18.82
2022-10-14T11:24:40.360Z,18.81
2022-10-14T11:29:45.849Z,18.92
2022-10-14T11:34:47.988Z,19.27
2022-10-14T11:39:51.874Z,19.28
2022-10-14T11:44:58.619Z,19.23
2022-10-14T11:50:00.971Z,19.39
2022-10-14T11:55:01.769Z,19.43
2022-10-14T12:00:00.624Z,19.17
2022-10-14T12:05:21.015Z,19.39
2022-10-14T12:10:22.789Z,19.08
2022-10-14T12:15:23.141Z,19.04
2022-10-14T12:20:26.607Z,18.99
2022-10-14T12:25:26.577Z,19.25
2022-10-14T12:30:31.275Z,19.24
2022-10-14T12:35:42.991Z,19.18
2022-10-14T12:40:42.832Z,19.34
2022-10-14T12:45:47.133Z,19.48
2022-10-14T12:50:45.847Z,19.25
2022-10-14T12:55:50.848Z,19.28
2022-10-14T13:00:52.969Z,19.12
2022-10-14T13:05:49.859Z,19.32
2022-10-14T13:10:48.014Z,19.22
2022-10-14T13:15:49.686Z,19.21
2022-10-14T13:20:51.458Z,19.05
2022-10-14T13:25:49.866Z,19.18
2022-10-14T13:30:51.626Z,18.99
2022-10-14T13:35:52.082Z,19.43
2022-10-14T13:41:23.750Z,19.34
2022-10-14T13:46:27.902Z,19.26
2022-10-14T13:51:42.106Z,19.21
2022-10-14T13:57:06.582Z,19.29
2022-10-14T14:02:16.335Z,19.16
2022-10-14T14:07:58.991Z,19.29
2022-10-14T14:12:51.609Z,19.33
2022-10-14T14:17:49.332Z,18.89
2022-10-14T14:22:48.010Z,18.99
2022-10-14T14:27:48.589Z,18.91
2022-10-14T14:32:45.501Z,18.91
2022-10-14T14:37:55.203Z,18.53
2022-10-14T14:42:54.275Z,17.77
2022-10-14T14:47:52.351Z,17.70
2022-10-14T14:52:53.012Z,18.06
2022-10-14T14:57:57.957Z,18.04
2022-10-14T15:03:00.452Z,17.82
2022-10-14T15:07:58.263Z,17.64
2022-10-14T15:12:59.677Z,17.63
2022-10-14T15:18:11.616Z,17.69
2022-10-14T15:23:33.974Z,17.69
2022-10-14T15:28:32.052Z,17.54
2022-10-14T15:33:29.918Z,17.56
2022-10-14T15:38:27.632Z,17.21
2022-10-14T15:43:25.096Z,17.25
2022-10-14T15:48:25.502Z,17.30
2022-10-14T15:53:22.200Z,17.51
2022-10-14T15:58:18.909Z,17.32
2022-10-14T16:03:17.125Z,16.95
2022-10-14T16:08:21.331Z,17.12
2022-10-14T16:13:17.992Z,17.03
2022-10-14T16:18:18.029Z,16.90
2022-10-14T16:23:17.748Z,16.54
2022-10-14T16:28:15.625Z,16.57
2022-10-14T16:38:24.061Z,16.65
2022-10-14T16:43:21.579Z,16.71
2022-10-14T16:48:29.597Z,17.16
2022-10-14T16:53:40.457Z,16.97
2022-10-14T16:58:38.814Z,16.76
2022-10-14T17:03:36.451Z,16.94
2022-10-14T17:08:34.450Z,16.71
2022-10-14T17:13:31.141Z,16.66
2022-10-14T17:18:33.687Z,16.76
2022-10-14T17:23:34.224Z,16.81
2022-10-14T17:28:33.229Z,16.56
2022-10-14T17:33:30.873Z,16.71
2022-10-14T17:38:29.205Z,16.85
2022-10-14T17:43:26.030Z,16.75
2022-10-14T17:48:27.020Z,16.55
2022-10-14T17:53:24.848Z,16.63
2022-10-14T17:58:22.792Z,16.65
2022-10-14T18:03:19.563Z,16.61
2022-10-14T18:08:16.340Z,16.53
2022-10-14T18:13:15.105Z,16.71
2022-10-14T18:18:11.982Z,16.56
2022-10-14T18:23:10.826Z,17.11
2022-10-14T18:28:08.397Z,16.99
2022-10-14T18:33:06.041Z,16.97
2022-10-14T18:38:02.615Z,16.91
2022-10-14T18:43:01.015Z,17.10
2022-10-14T18:48:00.729Z,17.00
2022-10-14T18:52:58.163Z,16.99
2022-10-14T18:57:54.808Z,16.87
2022-10-14T19:02:54.351Z,16.88
2022-10-14T19:07:56.141Z,16.80
2022-10-14T19:12:53.710Z,16.97
2022-10-14T19:17:54.508Z,17.09
2022-10-14T19:22:56.509Z,17.00
2022-10-14T19:27:54.349Z,16.95
2022-10-14T19:32:51.044Z,16.83
2022-10-14T19:37:47.935Z,16.74
2022-10-14T19:42:44.865Z,16.63
2022-10-14T19:47:42.444Z,16.85
2022-10-14T19:52:41.510Z,16.75
2022-10-14T19:57:38.245Z,16.74
2022-10-14T20:07:38.578Z,16.80
2022-10-14T20:12:35.250Z,16.85
2022-10-14T20:17:32.053Z,16.83
2022-10-14T20:22:28.662Z,16.87
2022-10-14T20:27:26.255Z,16.82
2022-10-14T20:32:23.311Z,16.82
2022-10-14T20:37:23.031Z,16.92
2022-10-14T20:42:22.489Z,16.80
2022-10-14T20:47:20.059Z,16.73
2022-10-14T20:52:17.192Z,16.60
2022-10-14T20:57:13.884Z,16.61
2022-10-14T21:02:15.886Z,16.67
2022-10-14T21:07:13.301Z,16.50
2022-10-14T21:12:10.198Z,16.25
2022-10-14T21:17:06.846Z,16.09
2022-10-14T21:22:03.548Z,16.01
2022-10-14T21:27:01.231Z,15.78
2022-10-14T21:32:03.790Z,15.38
2022-10-14T21:37:00.831Z,15.34
2022-10-14T21:41:57.457Z,15.17
2022-10-14T21:46:55.016Z,14.70
2022-10-14T21:51:51.688Z,14.74
2022-10-14T21:56:48.516Z,14.53
2022-10-14T22:01:45.438Z,14.62
2022-10-14T22:06:42.652Z,14.21
2022-10-14T22:11:39.675Z,14.40
2022-10-14T22:16:36.275Z,14.56
2022-10-14T22:21:34.497Z,14.32
2022-10-14T22:26:31.875Z,14.12
2022-10-14T22:31:29.143Z,13.76
2022-10-14T22:36:27.637Z,13.84
2022-10-14T22:41:24.764Z,13.84
2022-10-14T22:46:23.602Z,13.93
2022-10-14T22:51:20.240Z,14.01
2022-10-14T22:56:18.432Z,14.03
2022-10-14T23:01:16.024Z,14.22
2022-10-14T23:06:14.047Z,14.38
2022-10-14T23:11:12.661Z,14.43
2022-10-14T23:16:13.845Z,14.01
2022-10-14T23:21:11.232Z,14.32
2022-10-14T23:26:09.236Z,14.45
2022-10-14T23:31:10.287Z,14.46
2022-10-14T23:36:07.856Z,14.40
2022-10-14T23:41:04.932Z,14.64
2022-10-14T23:46:02.362Z,14.47
2022-10-14T23:50:59.074Z,14.39
2022-10-14T23:55:56.203Z,14.69
